Terminal Aerodrome Forecast
Issued by NWS Cleveland, OH

Home | Current Version | Previous Version | Text Only | Print | Product List | Glossary Off
Versions: 1 2 3 4 5 6 7 8 9 10 11 12 13 14 15 16 17 18 19 20 21 22 23 24 25 26 27

951
FTUS41 KCLE 100256 AAB
TAFCLE
TAF AMD
KCLE 100256Z 1003/1106 26012KT 1 1/2SM -SN OVC012
      TEMPO 1003/1006 3SM -SN OVC022
     FM100600 26014KT 6SM -SHSN OVC022
     FM101300 26014KT 4SM -SHSN OVC025
     FM101600 27012KT 1 1/2SM -SN OVC012
     FM102300 28012KT 3SM -SHSN OVC020=

USA.gov is the U.S. government's official web portal to all federal, state and local government web resources and services.